sensor_id;sensor_type;location;lat;lon;timestamp;pressure;altitude;pressure_sealevel;temperature;humidity
62038;BME280;47991;42.974;12.082;2022-12-18T00:01:37;98493.46;;;7.52;88.23
62038;BME280;47991;42.974;12.082;2022-12-18T00:04:06;98493.48;;;7.47;88.62
62038;BME280;47991;42.974;12.082;2022-12-18T00:06:35;98492.60;;;7.46;88.80
62038;BME280;47991;42.974;12.082;2022-12-18T00:09:03;98493.34;;;7.41;89.21
62038;BME280;47991;42.974;12.082;2022-12-18T00:11:31;98491.40;;;7.40;89.30
62038;BME280;47991;42.974;12.082;2022-12-18T00:13:59;98491.03;;;7.44;89.04
62038;BME280;47991;42.974;12.082;2022-12-18T00:16:28;98494.05;;;7.39;88.97
62038;BME280;47991;42.974;12.082;2022-12-18T00:18:56;98497.39;;;7.38;89.20
62038;BME280;47991;42.974;12.082;2022-12-18T00:21:25;98501.79;;;7.40;89.15
62038;BME280;47991;42.974;12.082;2022-12-18T00:23:53;98505.84;;;7.40;89.27
62038;BME280;47991;42.974;12.082;2022-12-18T00:26:27;98507.24;;;7.40;89.45
62038;BME280;47991;42.974;12.082;2022-12-18T00:29:03;98514.08;;;7.44;89.79
62038;BME280;47991;42.974;12.082;2022-12-18T00:31:32;98515.11;;;7.52;89.99
62038;BME280;47991;42.974;12.082;2022-12-18T00:34:01;98516.66;;;7.59;90.10
62038;BME280;47991;42.974;12.082;2022-12-18T00:36:31;98523.38;;;7.49;89.90
62038;BME280;47991;42.974;12.082;2022-12-18T00:39:00;98529.05;;;7.38;90.00
62038;BME280;47991;42.974;12.082;2022-12-18T00:41:30;98530.10;;;7.41;90.45
62038;BME280;47991;42.974;12.082;2022-12-18T00:44:17;98534.30;;;7.45;90.19
62038;BME280;47991;42.974;12.082;2022-12-18T00:46:47;98538.88;;;7.48;90.04
62038;BME280;47991;42.974;12.082;2022-12-18T00:49:17;98541.68;;;7.50;90.03
62038;BME280;47991;42.974;12.082;2022-12-18T00:51:45;98542.56;;;7.49;89.93
62038;BME280;47991;42.974;12.082;2022-12-18T00:54:13;98545.73;;;7.52;89.88
62038;BME280;47991;42.974;12.082;2022-12-18T00:56:41;98553.13;;;7.48;89.76
62038;BME280;47991;42.974;12.082;2022-12-18T00:59:08;98556.30;;;7.47;90.09
62038;BME280;47991;42.974;12.082;2022-12-18T01:01:36;98553.64;;;7.51;90.21
62038;BME280;47991;42.974;12.082;2022-12-18T01:04:05;98557.69;;;7.52;90.20
62038;BME280;47991;42.974;12.082;2022-12-18T01:06:33;98563.30;;;7.56;90.33
62038;BME280;47991;42.974;12.082;2022-12-18T01:09:00;98571.02;;;7.62;90.44
62038;BME280;47991;42.974;12.082;2022-12-18T01:11:28;98576.66;;;7.61;89.92
62038;BME280;47991;42.974;12.082;2022-12-18T01:13:57;98580.36;;;7.55;90.02
62038;BME280;47991;42.974;12.082;2022-12-18T01:16:24;98584.43;;;7.52;89.96
62038;BME280;47991;42.974;12.082;2022-12-18T01:18:53;98587.95;;;7.52;90.39
62038;BME280;47991;42.974;12.082;2022-12-18T01:21:23;98594.46;;;7.50;90.07
62038;BME280;47991;42.974;12.082;2022-12-18T01:23:55;98599.91;;;7.50;90.14
62038;BME280;47991;42.974;12.082;2022-12-18T01:26:24;98603.59;;;7.55;90.07
62038;BME280;47991;42.974;12.082;2022-12-18T01:28:54;98605.16;;;7.57;90.02
62038;BME280;47991;42.974;12.082;2022-12-18T01:31:25;98611.68;;;7.58;90.30
62038;BME280;47991;42.974;12.082;2022-12-18T01:33:53;98619.23;;;7.62;90.52
62038;BME280;47991;42.974;12.082;2022-12-18T01:36:26;98623.44;;;7.67;90.39
62038;BME280;47991;42.974;12.082;2022-12-18T01:38:55;98628.02;;;7.67;90.30
62038;BME280;47991;42.974;12.082;2022-12-18T01:41:26;98628.70;;;7.75;90.23
62038;BME280;47991;42.974;12.082;2022-12-18T01:43:57;98627.30;;;7.71;89.92
62038;BME280;47991;42.974;12.082;2022-12-18T01:46:26;98631.02;;;7.67;90.12
62038;BME280;47991;42.974;12.082;2022-12-18T01:48:58;98630.67;;;7.64;90.02
62038;BME280;47991;42.974;12.082;2022-12-18T01:51:29;98635.77;;;7.64;90.23
62038;BME280;47991;42.974;12.082;2022-12-18T01:53:59;98638.60;;;7.62;90.34
62038;BME280;47991;42.974;12.082;2022-12-18T01:56:28;98635.95;;;7.66;90.86
62038;BME280;47991;42.974;12.082;2022-12-18T01:59:08;98641.02;;;7.77;90.49
62038;BME280;47991;42.974;12.082;2022-12-18T02:01:37;98640.46;;;7.89;90.72
62038;BME280;47991;42.974;12.082;2022-12-18T02:04:23;98639.90;;;7.95;90.47
62038;BME280;47991;42.974;12.082;2022-12-18T02:06:58;98642.98;;;7.68;90.41
62038;BME280;47991;42.974;12.082;2022-12-18T02:09:39;98644.25;;;7.48;91.06
62038;BME280;47991;42.974;12.082;2022-12-18T02:12:21;98645.31;;;7.44;91.77
62038;BME280;47991;42.974;12.082;2022-12-18T02:15:12;98642.86;;;7.48;91.70
62038;BME280;47991;42.974;12.082;2022-12-18T02:17:52;98641.26;;;7.56;91.58
62038;BME280;47991;42.974;12.082;2022-12-18T02:20:28;98643.36;;;7.61;91.09
62038;BME280;47991;42.974;12.082;2022-12-18T02:28:39;98642.69;;;7.43;91.02
62038;BME280;47991;42.974;12.082;2022-12-18T02:31:13;98640.75;;;7.39;91.41
62038;BME280;47991;42.974;12.082;2022-12-18T02:33:44;98637.06;;;7.39;91.67
62038;BME280;47991;42.974;12.082;2022-12-18T02:36:16;98640.23;;;7.38;91.96
62038;BME280;47991;42.974;12.082;2022-12-18T02:38:45;98646.04;;;7.39;92.01
62038;BME280;47991;42.974;12.082;2022-12-18T02:41:15;98648.67;;;7.44;92.05
62038;BME280;47991;42.974;12.082;2022-12-18T02:43:49;98657.10;;;7.43;91.89
62038;BME280;47991;42.974;12.082;2022-12-18T02:46:34;98660.10;;;7.46;92.08
62038;BME280;47991;42.974;12.082;2022-12-18T02:57:11;98662.55;;;7.56;90.61
62038;BME280;47991;42.974;12.082;2022-12-18T02:59:53;98666.27;;;7.42;90.48
62038;BME280;47991;42.974;12.082;2022-12-18T03:03:04;98669.09;;;7.31;90.89
62038;BME280;47991;42.974;12.082;2022-12-18T03:05:56;98674.20;;;7.28;91.20
62038;BME280;47991;42.974;12.082;2022-12-18T03:08:34;98677.71;;;7.33;91.11
62038;BME280;47991;42.974;12.082;2022-12-18T03:11:14;98680.33;;;7.34;91.20
62038;BME280;47991;42.974;12.082;2022-12-18T03:13:54;98683.88;;;7.27;92.17
62038;BME280;47991;42.974;12.082;2022-12-18T03:16:27;98683.16;;;7.25;91.71
62038;BME280;47991;42.974;12.082;2022-12-18T03:19:01;98678.41;;;7.26;90.94
62038;BME280;47991;42.974;12.082;2022-12-18T03:21:40;98673.48;;;7.15;90.74
62038;BME280;47991;42.974;12.082;2022-12-18T03:24:11;98676.65;;;7.03;90.65
62038;BME280;47991;42.974;12.082;2022-12-18T03:26:43;98677.17;;;6.98;90.94
62038;BME280;47991;42.974;12.082;2022-12-18T03:32:06;98679.83;;;7.03;91.05
62038;BME280;47991;42.974;12.082;2022-12-18T03:34:38;98684.21;;;6.99;91.09
62038;BME280;47991;42.974;12.082;2022-12-18T03:37:08;98681.21;;;7.01;91.45
62038;BME280;47991;42.974;12.082;2022-12-18T03:39:37;98680.70;;;7.08;91.57
62038;BME280;47991;42.974;12.082;2022-12-18T03:42:13;98682.64;;;7.13;91.45
62038;BME280;47991;42.974;12.082;2022-12-18T03:48:00;98686.85;;;7.21;91.16
62038;BME280;47991;42.974;12.082;2022-12-18T03:50:46;98685.80;;;7.23;91.21
62038;BME280;47991;42.974;12.082;2022-12-18T03:55:51;98693.01;;;7.27;90.78
62038;BME280;47991;42.974;12.082;2022-12-18T03:58:24;98696.36;;;7.28;90.48
62038;BME280;47991;42.974;12.082;2022-12-18T04:01:01;98697.40;;;7.19;89.62
62038;BME280;47991;42.974;12.082;2022-12-18T04:03:32;98699.67;;;6.96;89.29
62038;BME280;47991;42.974;12.082;2022-12-18T04:06:03;98700.70;;;6.80;89.95
62038;BME280;47991;42.974;12.082;2022-12-18T04:08:32;98705.79;;;6.73;90.31
62038;BME280;47991;42.974;12.082;2022-12-18T04:11:06;98715.10;;;6.72;90.81
62038;BME280;47991;42.974;12.082;2022-12-18T04:13:36;98719.16;;;6.79;90.60
62038;BME280;47991;42.974;12.082;2022-12-18T04:16:12;98725.31;;;6.79;90.38
62038;BME280;47991;42.974;12.082;2022-12-18T04:18:41;98726.54;;;6.79;90.38
62038;BME280;47991;42.974;12.082;2022-12-18T04:21:10;98726.55;;;6.82;90.38
62038;BME280;47991;42.974;12.082;2022-12-18T04:23:38;98725.31;;;6.85;90.49
62038;BME280;47991;42.974;12.082;2022-12-18T04:26:07;98727.25;;;6.83;90.92
62038;BME280;47991;42.974;12.082;2022-12-18T04:29:02;98727.77;;;6.80;90.95
62038;BME280;47991;42.974;12.082;2022-12-18T04:31:30;98731.13;;;6.85;90.89
62038;BME280;47991;42.974;12.082;2022-12-18T04:33:58;98734.48;;;6.89;90.72
62038;BME280;47991;42.974;12.082;2022-12-18T04:36:26;98742.72;;;6.87;90.58
62038;BME280;47991;42.974;12.082;2022-12-18T04:38:54;98746.95;;;6.85;91.06
62038;BME280;47991;42.974;12.082;2022-12-18T04:41:22;98750.83;;;6.89;91.00
62038;BME280;47991;42.974;12.082;2022-12-18T04:43:51;98748.36;;;6.91;90.93
62038;BME280;47991;42.974;12.082;2022-12-18T04:46:20;98749.08;;;6.95;90.85
62038;BME280;47991;42.974;12.082;2022-12-18T04:48:48;98750.14;;;7.00;90.65
62038;BME280;47991;42.974;12.082;2022-12-18T04:51:15;98753.48;;;7.06;90.55
62038;BME280;47991;42.974;12.082;2022-12-18T04:53:43;98758.24;;;7.08;90.29
62038;BME280;47991;42.974;12.082;2022-12-18T04:56:13;98765.29;;;7.12;90.41
62038;BME280;47991;42.974;12.082;2022-12-18T04:58:42;98765.98;;;7.09;89.69
62038;BME280;47991;42.974;12.082;2022-12-18T05:01:12;98766.13;;;6.97;89.96
62038;BME280;47991;42.974;12.082;2022-12-18T05:03:40;98773.50;;;6.89;90.30
62038;BME280;47991;42.974;12.082;2022-12-18T05:06:08;98779.48;;;6.90;90.50
62038;BME280;47991;42.974;12.082;2022-12-18T05:08:37;98780.54;;;6.92;90.55
62038;BME280;47991;42.974;12.082;2022-12-18T05:11:11;98783.70;;;6.95;90.28
62038;BME280;47991;42.974;12.082;2022-12-18T05:13:39;98784.23;;;6.93;90.31
62038;BME280;47991;42.974;12.082;2022-12-18T05:16:07;98784.76;;;6.92;90.56
62038;BME280;47991;42.974;12.082;2022-12-18T05:18:34;98789.50;;;6.89;90.64
62038;BME280;47991;42.974;12.082;2022-12-18T05:21:03;98796.54;;;6.92;90.74
62038;BME280;47991;42.974;12.082;2022-12-18T05:23:31;98800.94;;;6.93;91.00
62038;BME280;47991;42.974;12.082;2022-12-18T05:26:04;98799.70;;;6.97;90.79
62038;BME280;47991;42.974;12.082;2022-12-18T05:28:34;98807.80;;;7.00;90.92
62038;BME280;47991;42.974;12.082;2022-12-18T05:31:03;98813.09;;;7.06;91.07
62038;BME280;47991;42.974;12.082;2022-12-18T05:33:33;98815.20;;;7.07;90.98
62038;BME280;47991;42.974;12.082;2022-12-18T05:36:03;98812.91;;;7.05;92.08
62038;BME280;47991;42.974;12.082;2022-12-18T05:38:32;98820.11;;;7.03;92.04
62038;BME280;47991;42.974;12.082;2022-12-18T05:41:00;98820.66;;;7.07;91.93
62038;BME280;47991;42.974;12.082;2022-12-18T05:43:28;98824.90;;;7.14;91.87
62038;BME280;47991;42.974;12.082;2022-12-18T05:45:56;98821.56;;;7.19;91.65
62038;BME280;47991;42.974;12.082;2022-12-18T05:48:25;98823.86;;;7.18;91.64
62038;BME280;47991;42.974;12.082;2022-12-18T05:50:53;98828.79;;;7.22;91.91
62038;BME280;47991;42.974;12.082;2022-12-18T05:53:20;98834.77;;;7.26;91.62
62038;BME280;47991;42.974;12.082;2022-12-18T05:55:49;98842.52;;;7.28;91.65
62038;BME280;47991;42.974;12.082;2022-12-18T05:58:16;98848.33;;;7.35;91.81
62038;BME280;47991;42.974;12.082;2022-12-18T06:00:45;98849.22;;;7.40;91.84
62038;BME280;47991;42.974;12.082;2022-12-18T06:03:14;98850.80;;;7.44;91.99
62038;BME280;47991;42.974;12.082;2022-12-18T06:05:43;98850.81;;;7.45;92.03
62038;BME280;47991;42.974;12.082;2022-12-18T06:08:12;98852.76;;;7.49;91.93
62038;BME280;47991;42.974;12.082;2022-12-18T06:10:41;98854.34;;;7.54;92.15
62038;BME280;47991;42.974;12.082;2022-12-18T06:13:09;98854.00;;;7.59;91.74
62038;BME280;47991;42.974;12.082;2022-12-18T06:15:37;98861.04;;;7.63;91.70
62038;BME280;47991;42.974;12.082;2022-12-18T06:18:05;98861.22;;;7.70;91.65
62038;BME280;47991;42.974;12.082;2022-12-18T06:20:33;98865.98;;;7.74;91.11
62038;BME280;47991;42.974;12.082;2022-12-18T06:23:04;98863.51;;;7.62;90.92
62038;BME280;47991;42.974;12.082;2022-12-18T06:25:32;98868.26;;;7.64;91.43
62038;BME280;47991;42.974;12.082;2022-12-18T06:28:00;98867.73;;;7.66;91.30
62038;BME280;47991;42.974;12.082;2022-12-18T06:30:28;98870.38;;;7.72;91.58
62038;BME280;47991;42.974;12.082;2022-12-18T06:32:55;98871.79;;;7.75;91.37
62038;BME280;47991;42.974;12.082;2022-12-18T06:35:23;98872.67;;;7.78;91.27
62038;BME280;47991;42.974;12.082;2022-12-18T06:37:51;98872.67;;;7.83;91.18
62038;BME280;47991;42.974;12.082;2022-12-18T06:40:19;98872.51;;;7.86;90.94
62038;BME280;47991;42.974;12.082;2022-12-18T06:42:47;98876.38;;;7.91;90.95
62038;BME280;47991;42.974;12.082;2022-12-18T06:45:16;98877.26;;;7.93;90.73
62038;BME280;47991;42.974;12.082;2022-12-18T06:47:43;98883.06;;;7.92;90.52
62038;BME280;47991;42.974;12.082;2022-12-18T06:50:12;98886.94;;;7.92;90.61
62038;BME280;47991;42.974;12.082;2022-12-18T06:52:40;98891.35;;;7.94;90.75
62038;BME280;47991;42.974;12.082;2022-12-18T06:55:08;98891.70;;;7.95;90.29
62038;BME280;47991;42.974;12.082;2022-12-18T06:57:37;98895.39;;;7.97;90.24
62038;BME280;47991;42.974;12.082;2022-12-18T07:00:06;98897.68;;;7.92;90.40
62038;BME280;47991;42.974;12.082;2022-12-18T07:02:34;98898.92;;;7.95;90.47
62038;BME280;47991;42.974;12.082;2022-12-18T07:05:02;98896.98;;;8.00;90.18
62038;BME280;47991;42.974;12.082;2022-12-18T07:07:31;98893.45;;;7.87;89.67
62038;BME280;47991;42.974;12.082;2022-12-18T07:09:58;98896.27;;;7.82;90.33
62038;BME280;47991;42.974;12.082;2022-12-18T07:12:29;98896.98;;;7.86;90.59
62038;BME280;47991;42.974;12.082;2022-12-18T07:14:57;98901.20;;;7.94;90.54
62038;BME280;47991;42.974;12.082;2022-12-18T07:17:24;98905.60;;;7.92;90.00
62038;BME280;47991;42.974;12.082;2022-12-18T07:19:51;98908.77;;;7.87;90.36
62038;BME280;47991;42.974;12.082;2022-12-18T07:22:19;98911.77;;;7.91;90.32
62038;BME280;47991;42.974;12.082;2022-12-18T07:24:46;98913.88;;;7.92;90.14
62038;BME280;47991;42.974;12.082;2022-12-18T07:27:14;98915.65;;;7.97;90.23
62038;BME280;47991;42.974;12.082;2022-12-18T07:29:41;98922.86;;;8.01;90.16
62038;BME280;47991;42.974;12.082;2022-12-18T07:32:09;98924.27;;;8.05;89.94
62038;BME280;47991;42.974;12.082;2022-12-18T07:34:36;98927.45;;;8.12;89.84
62038;BME280;47991;42.974;12.082;2022-12-18T07:37:04;98936.08;;;8.15;89.48
62038;BME280;47991;42.974;12.082;2022-12-18T07:39:33;98941.36;;;8.14;89.36
62038;BME280;47991;42.974;12.082;2022-12-18T07:42:01;98949.46;;;8.11;89.07
62038;BME280;47991;42.974;12.082;2022-12-18T07:44:48;98953.52;;;8.15;89.31
62038;BME280;47991;42.974;12.082;2022-12-18T07:47:16;98954.75;;;8.12;88.17
62038;BME280;47991;42.974;12.082;2022-12-18T07:49:45;98959.31;;;7.93;88.21
62038;BME280;47991;42.974;12.082;2022-12-18T07:52:12;98963.17;;;7.81;89.10
62038;BME280;47991;42.974;12.082;2022-12-18T07:54:39;98966.16;;;7.82;89.90
62038;BME280;47991;42.974;12.082;2022-12-18T07:57:11;98970.05;;;7.91;89.97
62038;BME280;47991;42.974;12.082;2022-12-18T07:59:39;98973.41;;;8.06;89.93
62038;BME280;47991;42.974;12.082;2022-12-18T08:02:07;98981.87;;;8.18;88.83
62038;BME280;47991;42.974;12.082;2022-12-18T08:04:34;98985.58;;;8.29;88.96
62038;BME280;47991;42.974;12.082;2022-12-18T08:07:01;98994.06;;;8.55;89.28
62038;BME280;47991;42.974;12.082;2022-12-18T08:09:29;98999.85;;;8.87;88.10
62038;BME280;47991;42.974;12.082;2022-12-18T08:11:56;98996.80;;;9.13;88.65
62038;BME280;47991;42.974;12.082;2022-12-18T08:14:23;99003.61;;;9.33;88.27
62038;BME280;47991;42.974;12.082;2022-12-18T08:16:51;99001.77;;;9.56;89.27
62038;BME280;47991;42.974;12.082;2022-12-18T08:19:20;99010.31;;;9.76;87.96
62038;BME280;47991;42.974;12.082;2022-12-18T08:21:47;99014.63;;;9.95;88.41
62038;BME280;47991;42.974;12.082;2022-12-18T08:24:15;99014.06;;;10.29;87.63
62038;BME280;47991;42.974;12.082;2022-12-18T08:26:42;99015.23;;;10.64;86.30
62038;BME280;47991;42.974;12.082;2022-12-18T08:29:09;99019.45;;;10.44;80.79
62038;BME280;47991;42.974;12.082;2022-12-18T08:31:37;99028.25;;;10.20;81.26
62038;BME280;47991;42.974;12.082;2022-12-18T08:34:05;99031.31;;;10.11;84.15
62038;BME280;47991;42.974;12.082;2022-12-18T08:36:32;99034.11;;;10.15;84.00
62038;BME280;47991;42.974;12.082;2022-12-18T08:39:01;99032.80;;;9.99;82.08
62038;BME280;47991;42.974;12.082;2022-12-18T08:41:28;99036.06;;;9.84;82.56
62038;BME280;47991;42.974;12.082;2022-12-18T08:43:57;99040.80;;;9.90;82.38
62038;BME280;47991;42.974;12.082;2022-12-18T08:46:44;99047.74;;;10.13;82.00
62038;BME280;47991;42.974;12.082;2022-12-18T08:49:12;99053.42;;;10.42;82.69
62038;BME280;47991;42.974;12.082;2022-12-18T08:51:39;99055.17;;;10.67;82.75
62038;BME280;47991;42.974;12.082;2022-12-18T08:54:09;99058.00;;;10.88;81.04
62038;BME280;47991;42.974;12.082;2022-12-18T08:56:37;99056.35;;;10.94;79.56
62038;BME280;47991;42.974;12.082;2022-12-18T08:59:06;99059.82;;;10.81;78.30
62038;BME280;47991;42.974;12.082;2022-12-18T09:01:33;99060.59;;;10.96;79.79
62038;BME280;47991;42.974;12.082;2022-12-18T09:04:01;99059.18;;;11.13;78.20
62038;BME280;47991;42.974;12.082;2022-12-18T09:06:29;99065.17;;;11.16;77.13
62038;BME280;47991;42.974;12.082;2022-12-18T09:08:57;99062.33;;;11.34;78.31
62038;BME280;47991;42.974;12.082;2022-12-18T09:11:26;99062.13;;;11.36;76.26
62038;BME280;47991;42.974;12.082;2022-12-18T09:13:55;99060.54;;;11.52;77.76
62038;BME280;47991;42.974;12.082;2022-12-18T09:16:24;99062.48;;;11.67;74.59
62038;BME280;47991;42.974;12.082;2022-12-18T09:18:51;99065.16;;;11.96;76.01
62038;BME280;47991;42.974;12.082;2022-12-18T09:21:29;99069.10;;;12.07;72.14
62038;BME280;47991;42.974;12.082;2022-12-18T09:23:57;99069.61;;;12.22;72.68
62038;BME280;47991;42.974;12.082;2022-12-18T09:26:26;99067.88;;;12.06;72.86
62038;BME280;47991;42.974;12.082;2022-12-18T09:28:53;99065.22;;;12.54;73.37
62038;BME280;47991;42.974;12.082;2022-12-18T09:31:22;99062.86;;;13.84;65.86
62038;BME280;47991;42.974;12.082;2022-12-18T09:33:50;99055.45;;;16.48;63.67
62038;BME280;47991;42.974;12.082;2022-12-18T09:36:18;99054.51;;;18.80;56.01
62038;BME280;47991;42.974;12.082;2022-12-18T09:38:46;99044.23;;;19.66;49.95
62038;BME280;47991;42.974;12.082;2022-12-18T09:44:26;99043.73;;;21.30;48.30
62038;BME280;47991;42.974;12.082;2022-12-18T09:49:43;99043.07;;;23.34;41.49
62038;BME280;47991;42.974;12.082;2022-12-18T09:52:37;99039.48;;;23.33;38.71
62038;BME280;47991;42.974;12.082;2022-12-18T09:55:31;99041.18;;;23.74;41.93
62038;BME280;47991;42.974;12.082;2022-12-18T09:58:06;99040.74;;;24.07;39.38
62038;BME280;47991;42.974;12.082;2022-12-18T10:00:39;99036.55;;;24.37;39.09
62038;BME280;47991;42.974;12.082;2022-12-18T10:03:14;99033.21;;;24.90;36.95
62038;BME280;47991;42.974;12.082;2022-12-18T10:11:12;99038.73;;;24.89;38.12
62038;BME280;47991;42.974;12.082;2022-12-18T10:14:36;99033.86;;;25.16;36.42
62038;BME280;47991;42.974;12.082;2022-12-18T10:16:47;99032.74;;;24.86;35.00
62038;BME280;47991;42.974;12.082;2022-12-18T10:19:50;99033.55;;;24.66;37.05
62038;BME280;47991;42.974;12.082;2022-12-18T10:27:42;99046.20;;;21.16;43.63
62038;BME280;47991;42.974;12.082;2022-12-18T10:30:15;99049.92;;;19.87;47.65
62038;BME280;47991;42.974;12.082;2022-12-18T10:32:43;99050.01;;;19.61;48.38
62038;BME280;47991;42.974;12.082;2022-12-18T10:35:25;99056.95;;;19.00;47.57
62038;BME280;47991;42.974;12.082;2022-12-18T10:38:03;99056.15;;;18.44;48.52
62038;BME280;47991;42.974;12.082;2022-12-18T10:40:31;99055.96;;;17.63;50.70
62038;BME280;47991;42.974;12.082;2022-12-18T10:43:20;99054.81;;;17.50;51.32
62038;BME280;47991;42.974;12.082;2022-12-18T10:48:40;99051.98;;;16.25;53.03
62038;BME280;47991;42.974;12.082;2022-12-18T10:51:26;99049.21;;;15.86;54.25
62038;BME280;47991;42.974;12.082;2022-12-18T10:53:56;99051.20;;;15.85;55.06
62038;BME280;47991;42.974;12.082;2022-12-18T10:56:26;99047.45;;;15.80;55.08
62038;BME280;47991;42.974;12.082;2022-12-18T10:58:58;99052.25;;;15.74;55.13
62038;BME280;47991;42.974;12.082;2022-12-18T11:01:28;99053.59;;;14.89;57.16
62038;BME280;47991;42.974;12.082;2022-12-18T11:04:08;99051.65;;;14.44;58.41
62038;BME280;47991;42.974;12.082;2022-12-18T11:07:01;99051.96;;;14.06;58.73
62038;BME280;47991;42.974;12.082;2022-12-18T11:09:31;99051.44;;;13.54;60.66
62038;BME280;47991;42.974;12.082;2022-12-18T11:12:02;99052.52;;;13.54;61.22
62038;BME280;47991;42.974;12.082;2022-12-18T11:14:32;99050.71;;;13.64;62.32
62038;BME280;47991;42.974;12.082;2022-12-18T11:17:01;99045.70;;;13.75;60.89
62038;BME280;47991;42.974;12.082;2022-12-18T11:19:32;99043.33;;;13.68;62.62
62038;BME280;47991;42.974;12.082;2022-12-18T11:22:03;99047.31;;;13.37;62.25
62038;BME280;47991;42.974;12.082;2022-12-18T11:27:21;99037.80;;;13.33;62.28
62038;BME280;47991;42.974;12.082;2022-12-18T11:29:52;99030.05;;;13.48;60.96
62038;BME280;47991;42.974;12.082;2022-12-18T11:32:42;99031.13;;;13.48;61.40
62038;BME280;47991;42.974;12.082;2022-12-18T11:37:42;99026.50;;;13.58;61.09
62038;BME280;47991;42.974;12.082;2022-12-18T11:40:15;99028.40;;;13.69;61.27
62038;BME280;47991;42.974;12.082;2022-12-18T11:43:15;99027.80;;;13.81;60.97
62038;BME280;47991;42.974;12.082;2022-12-18T11:46:19;99022.62;;;13.73;60.93
62038;BME280;47991;42.974;12.082;2022-12-18T11:54:37;99027.59;;;13.18;61.88
62038;BME280;47991;42.974;12.082;2022-12-18T12:00:22;99023.98;;;13.21;62.56
62038;BME280;47991;42.974;12.082;2022-12-18T12:03:14;99023.98;;;13.31;61.98
62038;BME280;47991;42.974;12.082;2022-12-18T12:06:10;99015.71;;;13.46;63.31
62038;BME280;47991;42.974;12.082;2022-12-18T12:26:43;99020.58;;;13.13;62.46
62038;BME280;47991;42.974;12.082;2022-12-18T12:29:36;99018.00;;;13.18;63.21
62038;BME280;47991;42.974;12.082;2022-12-18T12:40:51;99021.73;;;12.66;63.51
62038;BME280;47991;42.974;12.082;2022-12-18T12:43:25;99019.20;;;12.70;63.71
62038;BME280;47991;42.974;12.082;2022-12-18T12:48:52;99016.42;;;12.77;64.23
62038;BME280;47991;42.974;12.082;2022-12-18T12:51:32;99017.41;;;12.91;63.96
62038;BME280;47991;42.974;12.082;2022-12-18T12:54:03;99018.25;;;12.95;63.91
62038;BME280;47991;42.974;12.082;2022-12-18T12:56:48;99018.39;;;13.06;63.43
62038;BME280;47991;42.974;12.082;2022-12-18T13:04:33;99021.09;;;13.14;62.70
62038;BME280;47991;42.974;12.082;2022-12-18T13:07:26;99024.92;;;13.18;63.12
62038;BME280;47991;42.974;12.082;2022-12-18T13:15:34;99026.95;;;13.79;62.27
62038;BME280;47991;42.974;12.082;2022-12-18T13:18:10;99031.98;;;13.93;61.58
62038;BME280;47991;42.974;12.082;2022-12-18T13:25:59;99032.45;;;14.50;61.53
62038;BME280;47991;42.974;12.082;2022-12-18T13:31:01;99038.56;;;14.71;60.91
62038;BME280;47991;42.974;12.082;2022-12-18T13:36:16;99045.75;;;14.37;59.63
62038;BME280;47991;42.974;12.082;2022-12-18T13:38:44;99040.44;;;14.04;58.74
62038;BME280;47991;42.974;12.082;2022-12-18T13:43:44;99043.61;;;13.89;59.94
62038;BME280;47991;42.974;12.082;2022-12-18T13:46:42;99044.77;;;13.77;60.86
62038;BME280;47991;42.974;12.082;2022-12-18T13:51:44;99052.87;;;14.06;62.01
62038;BME280;47991;42.974;12.082;2022-12-18T13:54:35;99057.23;;;14.17;61.83
62038;BME280;47991;42.974;12.082;2022-12-18T13:57:04;99057.55;;;14.27;61.12
62038;BME280;47991;42.974;12.082;2022-12-18T13:59:35;99058.20;;;14.22;60.42
62038;BME280;47991;42.974;12.082;2022-12-18T14:02:21;99058.09;;;14.10;60.67
62038;BME280;47991;42.974;12.082;2022-12-18T14:04:50;99058.59;;;14.04;60.72
62038;BME280;47991;42.974;12.082;2022-12-18T14:07:26;99062.32;;;13.88;60.04
62038;BME280;47991;42.974;12.082;2022-12-18T14:09:57;99062.73;;;13.84;60.76
62038;BME280;47991;42.974;12.082;2022-12-18T14:12:28;99062.20;;;14.10;61.68
62038;BME280;47991;42.974;12.082;2022-12-18T14:17:59;99056.66;;;14.27;59.74
62038;BME280;47991;42.974;12.082;2022-12-18T14:20:29;99059.08;;;14.30;60.92
62038;BME280;47991;42.974;12.082;2022-12-18T14:22:58;99066.92;;;14.37;59.87
62038;BME280;47991;42.974;12.082;2022-12-18T14:25:28;99067.06;;;14.47;60.74
62038;BME280;47991;42.974;12.082;2022-12-18T14:30:38;99065.67;;;14.14;60.49
62038;BME280;47991;42.974;12.082;2022-12-18T14:36:01;99068.84;;;14.47;61.51
62038;BME280;47991;42.974;12.082;2022-12-18T14:38:42;99072.91;;;14.40;60.19
62038;BME280;47991;42.974;12.082;2022-12-18T14:41:14;99072.57;;;14.31;60.85
62038;BME280;47991;42.974;12.082;2022-12-18T14:43:45;99070.42;;;14.32;61.26
62038;BME280;47991;42.974;12.082;2022-12-18T14:49:02;99074.63;;;14.34;60.32
62038;BME280;47991;42.974;12.082;2022-12-18T14:51:34;99074.49;;;14.25;60.62
62038;BME280;47991;42.974;12.082;2022-12-18T14:54:28;99076.23;;;14.27;60.72
62038;BME280;47991;42.974;12.082;2022-12-18T14:57:35;99073.56;;;14.19;60.56
62038;BME280;47991;42.974;12.082;2022-12-18T15:00:04;99077.05;;;14.05;59.36
62038;BME280;47991;42.974;12.082;2022-12-18T15:02:35;99076.27;;;13.83;60.11
62038;BME280;47991;42.974;12.082;2022-12-18T15:07:45;99080.45;;;13.42;60.80
62038;BME280;47991;42.974;12.082;2022-12-18T15:10:34;99082.66;;;13.28;61.51
62038;BME280;47991;42.974;12.082;2022-12-18T15:18:03;99089.83;;;12.92;62.14
62038;BME280;47991;42.974;12.082;2022-12-18T15:20:32;99095.88;;;12.80;62.60
62038;BME280;47991;42.974;12.082;2022-12-18T15:23:51;99092.65;;;12.71;62.01
62038;BME280;47991;42.974;12.082;2022-12-18T15:26:21;99090.23;;;12.55;62.01
62038;BME280;47991;42.974;12.082;2022-12-18T15:28:55;99088.86;;;12.39;62.13
62038;BME280;47991;42.974;12.082;2022-12-18T15:31:29;99092.45;;;12.24;62.12
62038;BME280;47991;42.974;12.082;2022-12-18T15:36:26;99097.17;;;12.03;62.65